createdAt,value
2023-05-19T00:01:15.716Z,97233.78
2023-05-19T00:03:56.985Z,97235.09
2023-05-19T00:06:27.371Z,97236.50
2023-05-19T00:08:58.886Z,97238.03
2023-05-19T00:11:26.550Z,97240.88
2023-05-19T00:13:54.379Z,97233.63
2023-05-19T00:16:21.943Z,97234.13
2023-05-19T00:18:49.018Z,97234.59
2023-05-19T00:21:15.851Z,97235.19
2023-05-19T00:23:42.695Z,97237.00
2023-05-19T00:26:09.862Z,97221.56
2023-05-19T00:28:36.710Z,97230.25
2023-05-19T00:31:07.079Z,97227.34
2023-05-19T00:33:33.889Z,97222.56
2023-05-19T00:36:01.876Z,97218.16
2023-05-19T00:38:29.079Z,97226.31
2023-05-19T00:40:55.885Z,97219.34
2023-05-19T00:43:22.699Z,97217.78
2023-05-19T00:45:49.500Z,97221.91
2023-05-19T00:48:16.340Z,97215.88
2023-05-19T00:50:43.145Z,97216.72
2023-05-19T00:53:09.906Z,97211.03
2023-05-19T00:55:37.355Z,97216.25
2023-05-19T00:58:04.813Z,97207.47
2023-05-19T01:00:31.787Z,97210.44
2023-05-19T01:02:58.915Z,97217.19
2023-05-19T01:05:25.829Z,97211.50
2023-05-19T01:07:52.696Z,97211.03
2023-05-19T01:10:20.797Z,97211.75
2023-05-19T01:12:48.012Z,97207.63
2023-05-19T01:15:15.094Z,97204.91
2023-05-19T01:17:47.704Z,97206.66
2023-05-19T01:20:24.393Z,97213.16
2023-05-19T01:23:12.852Z,97203.34
2023-05-19T01:25:45.634Z,97210.09
2023-05-19T01:28:36.833Z,97207.03
2023-05-19T01:31:03.622Z,97213.66
2023-05-19T01:33:30.466Z,97209.84
2023-05-19T01:35:57.292Z,97212.34
2023-05-19T01:38:24.088Z,97208.44
2023-05-19T01:40:50.921Z,97213.41
2023-05-19T01:43:21.091Z,97209.13
2023-05-19T01:45:48.153Z,97210.44
2023-05-19T01:48:14.933Z,97221.56
2023-05-19T01:50:41.980Z,97219.84
2023-05-19T01:53:08.892Z,97214.72
2023-05-19T01:55:36.753Z,97205.00
2023-05-19T01:58:35.928Z,97208.44
2023-05-19T02:01:14.687Z,97209.50
2023-05-19T02:03:41.400Z,97207.13
2023-05-19T02:06:19.141Z,97205.22
2023-05-19T02:08:57.625Z,97212.69
2023-05-19T02:11:28.327Z,97210.69
2023-05-19T02:13:56.579Z,97204.06
2023-05-19T02:16:26.687Z,97204.31
2023-05-19T02:18:53.899Z,97202.75
2023-05-19T02:21:20.755Z,97194.47
2023-05-19T02:23:48.498Z,97210.59
2023-05-19T02:26:15.237Z,97211.28
2023-05-19T02:28:42.050Z,97196.84
2023-05-19T02:31:08.890Z,97210.78
2023-05-19T02:33:35.723Z,97206.19
2023-05-19T02:36:02.502Z,97208.31
2023-05-19T02:38:29.340Z,97208.31
2023-05-19T02:40:56.202Z,97207.84
2023-05-19T02:43:22.954Z,97207.47
2023-05-19T02:45:49.762Z,97204.19
2023-05-19T02:48:16.626Z,97199.69
2023-05-19T02:50:46.501Z,97201.22
2023-05-19T02:53:13.356Z,97199.81
2023-05-19T02:55:40.219Z,97205.84
2023-05-19T02:58:06.996Z,97199.69
2023-05-19T03:00:33.988Z,97196.34
2023-05-19T03:03:01.008Z,97194.81
2023-05-19T03:05:28.027Z,97191.72
2023-05-19T03:07:54.807Z,97193.75
2023-05-19T03:10:21.617Z,97190.47
2023-05-19T03:12:48.399Z,97187.97
2023-05-19T03:15:15.196Z,97187.16
2023-05-19T03:17:42.217Z,97182.88
2023-05-19T03:20:09.655Z,97186.91
2023-05-19T03:22:36.490Z,97191.28
2023-05-19T03:25:03.358Z,97183.13
2023-05-19T03:27:30.129Z,97176.47
2023-05-19T03:29:57.002Z,97169.97
2023-05-19T03:32:23.986Z,97175.78
2023-05-19T03:34:50.988Z,97174.47
2023-05-19T03:37:17.865Z,97171.75
2023-05-19T03:39:44.673Z,97178.50
2023-05-19T03:42:11.479Z,97172.22
2023-05-19T03:44:38.244Z,97175.78
2023-05-19T03:47:05.413Z,97185.47
2023-05-19T03:49:32.177Z,97187.34
2023-05-19T03:51:58.988Z,97186.28
2023-05-19T03:54:25.840Z,97191.72
2023-05-19T03:56:52.676Z,97193.03
2023-05-19T03:59:19.516Z,97191.97
2023-05-19T04:01:46.286Z,97199.81
2023-05-19T04:04:13.103Z,97205.34
2023-05-19T04:06:39.923Z,97201.13
2023-05-19T04:09:14.398Z,97197.91
2023-05-19T04:11:41.739Z,97205.72
2023-05-19T04:16:35.459Z,97207.13
2023-05-19T04:19:02.411Z,97208.06
2023-05-19T04:21:29.268Z,97202.78
2023-05-19T04:23:56.055Z,97204.19
2023-05-19T04:26:22.802Z,97208.81
2023-05-19T04:28:49.585Z,97205.97
2023-05-19T04:31:16.368Z,97202.78
2023-05-19T04:33:43.185Z,97208.22
2023-05-19T04:36:10.011Z,97209.03
2023-05-19T04:41:04.036Z,97213.41
2023-05-19T04:43:33.630Z,97215.66
2023-05-19T04:46:00.473Z,97209.88
2023-05-19T04:48:27.315Z,97211.75
2023-05-19T04:50:54.122Z,97219.44
2023-05-19T04:53:20.901Z,97215.19
2023-05-19T04:55:47.686Z,97218.50
2023-05-19T04:58:14.500Z,97219.19
2023-05-19T05:00:41.298Z,97222.16
2023-05-19T05:03:08.243Z,97223.25
2023-05-19T05:05:35.297Z,97227.03
2023-05-19T05:08:02.134Z,97223.00
2023-05-19T05:10:29.035Z,97213.53
2023-05-19T05:12:56.150Z,97212.84
2023-05-19T05:15:23.208Z,97216.25
2023-05-19T05:17:50.544Z,97219.34
2023-05-19T05:20:17.734Z,97215.56
2023-05-19T05:22:44.920Z,97208.56
2023-05-19T05:25:12.661Z,97208.94
2023-05-19T05:27:39.433Z,97212.84
2023-05-19T05:30:06.830Z,97205.47
2023-05-19T05:32:33.639Z,97212.22
2023-05-19T05:35:00.503Z,97215.78
2023-05-19T05:37:27.674Z,97206.53
2023-05-19T05:39:54.376Z,97203.13
2023-05-19T05:42:21.169Z,97214.47
2023-05-19T05:44:47.961Z,97208.78
2023-05-19T05:47:14.928Z,97204.28
2023-05-19T05:49:41.982Z,97213.16
2023-05-19T05:52:08.881Z,97206.66
2023-05-19T05:54:35.873Z,97198.25
2023-05-19T05:57:02.914Z,97199.41
2023-05-19T05:59:29.642Z,97204.75
2023-05-19T06:01:56.413Z,97214.44
2023-05-19T06:04:23.199Z,97210.06
2023-05-19T06:06:49.987Z,97209.72
2023-05-19T06:09:16.732Z,97201.56
2023-05-19T06:11:43.588Z,97198.09
2023-05-19T06:14:10.471Z,97195.75
2023-05-19T06:16:37.628Z,97197.38
2023-05-19T06:19:04.805Z,97198.81
2023-05-19T06:21:31.623Z,97209.09
2023-05-19T06:23:58.434Z,97195.75
2023-05-19T06:26:25.280Z,97200.13
2023-05-19T06:28:52.015Z,97201.53
2023-05-19T06:31:18.768Z,97199.13
2023-05-19T06:33:45.580Z,97186.44
2023-05-19T06:36:12.379Z,97186.22
2023-05-19T06:38:39.153Z,97185.38
2023-05-19T06:41:06.633Z,97195.78
2023-05-19T06:43:33.364Z,97189.66
2023-05-19T06:46:00.184Z,97190.59
2023-05-19T06:48:26.900Z,97185.72
2023-05-19T06:50:53.714Z,97199.25
2023-05-19T06:53:20.660Z,97186.78
2023-05-19T06:55:57.980Z,97191.16
2023-05-19T06:58:25.303Z,97188.22
2023-05-19T07:00:52.050Z,97175.41
2023-05-19T07:03:19.002Z,97181.91
2023-05-19T07:05:45.913Z,97181.91
2023-05-19T07:08:12.656Z,97171.88
2023-05-19T07:10:39.579Z,97178.47
2023-05-19T07:13:06.361Z,97176.81
2023-05-19T07:15:33.090Z,97185.25
2023-05-19T07:17:59.941Z,97177.91
2023-05-19T07:20:26.896Z,97178.22
2023-05-19T07:22:53.872Z,97180.75
2023-05-19T07:25:20.605Z,97185.25
2023-05-19T07:27:47.367Z,97186.22
2023-05-19T07:30:14.118Z,97187.28
2023-05-19T07:32:40.954Z,97183.47
2023-05-19T07:35:07.989Z,97181.81
2023-05-19T07:37:34.770Z,97180.19
2023-05-19T07:40:01.587Z,97171.06
2023-05-19T07:42:28.339Z,97168.88
2023-05-19T07:44:55.211Z,97167.69
2023-05-19T07:47:46.470Z,97177.78
2023-05-19T07:50:13.352Z,97167.81
2023-05-19T07:52:40.386Z,97165.34
2023-05-19T07:55:07.215Z,97158.25
2023-05-19T07:57:34.097Z,97154.66
2023-05-19T08:00:00.896Z,97157.88
2023-05-19T08:02:27.818Z,97153.63
2023-05-19T08:04:54.903Z,97152.94
2023-05-19T08:07:21.858Z,97152.69
2023-05-19T08:09:48.565Z,97150.91
2023-05-19T08:12:15.569Z,97152.22
2023-05-19T08:14:42.379Z,97154.97
2023-05-19T08:17:09.258Z,97154.97
2023-05-19T08:19:36.000Z,97152.34
2023-05-19T08:22:02.796Z,97144.28
2023-05-19T08:24:29.594Z,97144.41
2023-05-19T08:26:56.317Z,97150.44
2023-05-19T08:29:23.080Z,97148.78
2023-05-19T08:31:49.923Z,97150.06
2023-05-19T08:34:16.782Z,97151.06
2023-05-19T08:36:43.556Z,97148.41
2023-05-19T08:39:10.336Z,97149.03
2023-05-19T08:41:37.162Z,97148.56
2023-05-19T08:44:04.764Z,97133.06
2023-05-19T08:46:31.655Z,97138.84
2023-05-19T08:49:14.048Z,97134.84
2023-05-19T08:51:50.882Z,97139.59
2023-05-19T08:54:17.718Z,97136.03
2023-05-19T08:56:44.761Z,97138.88
2023-05-19T09:01:45.603Z,97136.63
2023-05-19T09:04:12.505Z,97138.34
2023-05-19T09:06:39.421Z,97133.03
2023-05-19T09:09:06.383Z,97137.91
2023-05-19T09:11:33.968Z,97124.28
2023-05-19T09:14:00.803Z,97129.03
2023-05-19T09:16:29.947Z,97116.16
2023-05-19T09:18:57.491Z,97112.25
2023-05-19T09:21:28.242Z,97101.00
2023-05-19T09:23:55.057Z,97100.19
2023-05-19T09:26:21.861Z,97099.72
2023-05-19T09:28:48.752Z,97100.06
2023-05-19T09:31:15.538Z,97092.50
2023-05-19T09:33:45.481Z,97100.56
2023-05-19T09:36:13.161Z,97091.81
2023-05-19T09:38:39.990Z,97094.28
2023-05-19T09:41:07.372Z,97090.59
2023-05-19T09:43:34.550Z,97088.03
2023-05-19T09:46:05.046Z,97095.94
2023-05-19T09:48:32.023Z,97085.63
2023-05-19T09:51:03.302Z,97090.25
2023-05-19T09:53:30.494Z,97090.72
2023-05-19T09:55:57.524Z,97082.56
2023-05-19T09:58:24.446Z,97084.72
2023-05-19T10:00:51.328Z,97082.31
2023-05-19T10:03:18.229Z,97080.91
2023-05-19T10:05:45.158Z,97086.00
2023-05-19T10:08:12.092Z,97080.44
2023-05-19T10:10:38.907Z,97073.81
2023-05-19T10:13:05.665Z,97081.59
2023-05-19T10:15:34.460Z,97079.69
2023-05-19T10:18:03.314Z,97086.09
2023-05-19T10:22:56.846Z,97077.94
2023-05-19T10:25:23.588Z,97082.88
2023-05-19T10:27:52.494Z,97086.28
2023-05-19T10:30:22.034Z,97094.44
2023-05-19T10:32:48.939Z,97083.97
2023-05-19T10:35:37.042Z,97086.00
2023-05-19T10:38:15.765Z,97090.44
2023-05-19T10:41:07.853Z,97087.44
2023-05-19T10:43:46.589Z,97081.50
2023-05-19T10:46:13.492Z,97077.84
2023-05-19T10:48:41.540Z,97076.63
2023-05-19T10:51:13.978Z,97073.66
2023-05-19T10:53:44.035Z,97065.31
2023-05-19T10:56:10.956Z,97070.50
2023-05-19T10:58:49.003Z,97065.16
2023-05-19T11:01:16.913Z,97070.63
2023-05-19T11:03:47.200Z,97068.97
2023-05-19T11:06:20.601Z,97059.09
2023-05-19T11:08:47.404Z,97056.16
2023-05-19T11:11:15.349Z,97054.50
2023-05-19T11:13:46.954Z,97059.09
2023-05-19T11:16:14.162Z,97055.16
2023-05-19T11:18:41.009Z,97051.47
2023-05-19T11:21:07.917Z,97046.34
2023-05-19T11:23:37.957Z,97047.09
2023-05-19T11:26:06.069Z,97054.78
2023-05-19T11:28:32.866Z,97046.69
2023-05-19T11:30:59.693Z,97045.53
2023-05-19T11:33:26.459Z,97052.63
2023-05-19T11:35:54.190Z,97058.44
2023-05-19T11:38:21.221Z,97056.84
2023-05-19T11:40:48.798Z,97055.28
2023-05-19T11:43:15.848Z,97043.91
2023-05-19T11:45:42.646Z,97046.38
2023-05-19T11:48:12.872Z,97031.19
2023-05-19T11:50:42.833Z,97042.91
2023-05-19T11:53:11.968Z,97033.91
2023-05-19T11:55:42.573Z,97029.88
2023-05-19T11:58:09.463Z,97035.09
2023-05-19T12:00:37.766Z,97027.47
2023-05-19T12:03:04.688Z,97028.56
2023-05-19T12:05:32.463Z,97023.84
2023-05-19T12:08:01.313Z,97017.41
2023-05-19T12:10:28.796Z,97017.97
2023-05-19T12:12:55.862Z,97015.50
2023-05-19T12:15:22.726Z,97016.31
2023-05-19T12:18:07.685Z,97015.66
2023-05-19T12:20:34.551Z,97014.16
2023-05-19T12:23:02.068Z,97024.72
2023-05-19T12:25:29.374Z,97018.13
2023-05-19T12:27:59.915Z,97016.31
2023-05-19T12:30:30.155Z,97019.94
2023-05-19T12:32:57.260Z,97001.75
2023-05-19T12:35:30.915Z,97015.97
2023-05-19T12:37:57.830Z,97011.00
2023-05-19T12:40:24.717Z,97016.69
2023-05-19T12:42:51.509Z,97011.06
2023-05-19T12:45:20.762Z,97016.28
2023-05-19T12:47:48.583Z,97011.91
2023-05-19T12:50:15.391Z,97021.22
2023-05-19T12:52:43.995Z,97001.38
2023-05-19T12:55:10.929Z,96999.78
2023-05-19T12:57:43.065Z,96996.81
2023-05-19T13:00:17.673Z,96994.34
2023-05-19T13:03:03.406Z,96996.59
2023-05-19T13:05:31.347Z,97010.78
2023-05-19T13:08:02.198Z,96995.03
2023-05-19T13:10:29.660Z,97001.53
2023-05-19T13:12:56.837Z,96983.00
2023-05-19T13:15:23.934Z,97000.06
2023-05-19T13:17:51.338Z,96984.44
2023-05-19T13:20:18.514Z,96981.25
2023-05-19T13:22:45.318Z,96982.44
2023-05-19T13:25:12.248Z,96988.72
2023-05-19T13:27:38.991Z,96995.56
2023-05-19T13:30:06.471Z,96994.44
2023-05-19T13:32:33.336Z,96997.41
2023-05-19T13:35:03.295Z,96987.06
2023-05-19T13:37:30.104Z,96994.56
2023-05-19T13:39:59.625Z,97002.34
2023-05-19T13:42:26.357Z,96992.56
2023-05-19T13:44:56.193Z,97000.63
2023-05-19T13:47:26.191Z,97000.66
2023-05-19T13:49:52.978Z,96991.41
2023-05-19T13:52:20.548Z,96984.38
2023-05-19T13:54:47.827Z,96990.38
2023-05-19T13:57:15.279Z,96990.22
2023-05-19T13:59:57.166Z,96998.44
2023-05-19T14:02:27.542Z,96992.22
2023-05-19T14:04:54.428Z,96985.63
2023-05-19T14:07:21.166Z,96982.97
2023-05-19T14:09:47.942Z,96983.00
2023-05-19T14:12:14.739Z,96975.78
2023-05-19T14:14:41.560Z,96980.28
2023-05-19T14:17:08.264Z,96983.97
2023-05-19T14:19:35.018Z,96985.56
2023-05-19T14:22:01.792Z,96986.69
2023-05-19T14:24:28.615Z,96991.63
2023-05-19T14:26:55.313Z,96987.59
2023-05-19T14:29:22.152Z,96981.19
2023-05-19T14:31:49.003Z,96986.91
2023-05-19T14:34:15.809Z,96973.19
2023-05-19T14:36:42.526Z,96975.28
2023-05-19T14:39:09.254Z,96988.75
2023-05-19T14:41:36.060Z,96979.22
2023-05-19T14:44:02.838Z,96981.63
2023-05-19T14:46:29.615Z,96983.28
2023-05-19T14:48:56.608Z,96984.81
2023-05-19T14:51:23.368Z,96984.25
2023-05-19T14:53:50.203Z,96982.06
2023-05-19T14:56:17.080Z,96972.53
2023-05-19T14:58:43.885Z,96971.97
2023-05-19T15:01:10.740Z,96991.34
2023-05-19T15:03:37.700Z,96980.84
2023-05-19T15:06:08.788Z,96978.88
2023-05-19T15:08:35.539Z,96994.44
2023-05-19T15:11:02.329Z,96990.28
2023-05-19T15:13:29.113Z,96979.59
2023-05-19T15:16:08.395Z,96966.63
2023-05-19T15:18:42.742Z,96968.53
2023-05-19T15:21:09.611Z,96975.44
2023-05-19T15:23:36.425Z,96979.47
2023-05-19T15:26:03.309Z,96975.66
2023-05-19T15:28:30.091Z,96971.56
2023-05-19T15:30:56.853Z,96981.38
2023-05-19T15:33:25.133Z,96972.31
2023-05-19T15:35:52.264Z,96973.97
2023-05-19T15:38:22.592Z,96981.00
2023-05-19T15:40:49.373Z,96979.03
2023-05-19T15:43:16.216Z,96987.72
2023-05-19T15:45:43.073Z,96984.16
2023-05-19T15:48:09.911Z,96978.31
2023-05-19T15:50:38.294Z,96991.13
2023-05-19T15:53:05.138Z,96989.94
2023-05-19T15:55:32.500Z,96982.03
2023-05-19T15:57:59.258Z,96992.09
2023-05-19T16:00:26.079Z,96994.00
2023-05-19T16:02:55.941Z,96984.44
2023-05-19T16:05:22.861Z,96978.97
2023-05-19T16:07:49.685Z,96975.19
2023-05-19T16:10:16.492Z,96979.56
2023-05-19T16:12:43.234Z,96981.44
2023-05-19T16:15:10.309Z,96972.72
2023-05-19T16:17:37.114Z,96974.59
2023-05-19T16:20:04.123Z,96969.22
2023-05-19T16:22:30.953Z,96974.91
2023-05-19T16:24:57.756Z,96968.06
2023-05-19T16:27:24.507Z,96969.66
2023-05-19T16:29:51.245Z,96976.75
2023-05-19T16:32:18.073Z,96971.56
2023-05-19T16:34:44.920Z,96969.06
2023-05-19T16:37:11.773Z,96960.88
2023-05-19T16:39:38.508Z,96965.03
2023-05-19T16:42:05.431Z,96954.34
2023-05-19T16:44:32.277Z,96964.84
2023-05-19T16:46:59.190Z,96964.09
2023-05-19T16:49:25.993Z,96961.22
2023-05-19T16:51:53.006Z,96965.03
2023-05-19T16:54:20.060Z,96963.13
2023-05-19T16:56:48.033Z,96956.19
2023-05-19T16:59:14.847Z,96964.50
2023-05-19T17:01:41.862Z,96958.78
2023-05-19T17:04:09.318Z,96968.56
2023-05-19T17:06:36.063Z,96966.28
2023-05-19T17:09:02.823Z,96954.69
2023-05-19T17:11:29.646Z,96964.94
2023-05-19T17:13:58.340Z,96968.56
2023-05-19T17:16:25.100Z,96960.13
2023-05-19T17:18:51.903Z,96967.72
2023-05-19T17:21:18.748Z,96969.63
2023-05-19T17:23:45.545Z,96955.19
2023-05-19T17:26:12.277Z,96979.56
2023-05-19T17:28:39.827Z,96986.75
2023-05-19T17:31:10.984Z,96974.00
2023-05-19T17:33:37.934Z,96979.03
2023-05-19T17:36:05.391Z,96971.94
2023-05-19T17:38:32.138Z,96971.53
2023-05-19T17:40:59.557Z,96974.25
2023-05-19T17:43:26.672Z,96968.97
2023-05-19T17:45:53.649Z,96966.16
2023-05-19T17:48:20.612Z,96964.50
2023-05-19T17:50:47.875Z,96966.41
2023-05-19T17:53:17.801Z,96969.63
2023-05-19T17:55:48.621Z,96971.78
2023-05-19T17:58:15.724Z,96959.81
2023-05-19T18:00:42.600Z,96965.59
2023-05-19T18:03:09.748Z,96959.88
2023-05-19T18:05:36.933Z,96961.53
2023-05-19T18:08:06.326Z,96964.00
2023-05-19T18:10:36.235Z,96965.91
2023-05-19T18:13:04.376Z,96975.91
2023-05-19T18:15:31.219Z,96966.91
2023-05-19T18:17:58.024Z,96974.59
2023-05-19T18:20:24.917Z,96981.44
2023-05-19T18:22:51.738Z,96975.16
2023-05-19T18:25:18.549Z,96964.50
2023-05-19T18:27:45.393Z,96974.50
2023-05-19T18:30:12.174Z,96977.31
2023-05-19T18:32:39.010Z,96971.53
2023-05-19T18:35:06.383Z,96977.47
2023-05-19T18:37:33.170Z,96971.84
2023-05-19T18:40:00.822Z,96969.13
2023-05-19T18:42:27.580Z,96964.50
2023-05-19T18:44:54.340Z,96970.28
2023-05-19T18:47:21.175Z,96977.31
2023-05-19T18:49:47.928Z,96970.22
2023-05-19T18:52:14.796Z,96973.50
2023-05-19T18:54:41.578Z,96971.34
2023-05-19T18:57:08.920Z,96968.31
2023-05-19T18:59:35.698Z,96971.84
2023-05-19T19:02:02.508Z,96964.84
2023-05-19T19:04:29.385Z,96975.34
2023-05-19T19:06:56.305Z,96972.84
2023-05-19T19:09:23.167Z,96972.00
2023-05-19T19:11:49.996Z,96971.78
2023-05-19T19:14:16.828Z,96973.91
2023-05-19T19:16:43.702Z,96970.03
2023-05-19T19:19:10.612Z,96973.34
2023-05-19T19:21:37.416Z,96981.50
2023-05-19T19:24:04.549Z,96978.63
2023-05-19T19:26:31.290Z,96985.63
2023-05-19T19:28:58.496Z,96990.50
2023-05-19T19:31:25.280Z,96987.78
2023-05-19T19:33:52.128Z,96989.09
2023-05-19T19:36:19.076Z,96985.56
2023-05-19T19:38:45.850Z,96985.69
2023-05-19T19:41:12.629Z,96986.38
2023-05-19T19:43:39.394Z,96985.22
2023-05-19T19:46:06.199Z,96990.06
2023-05-19T19:48:33.000Z,96985.94
2023-05-19T19:50:59.741Z,96986.28
2023-05-19T19:53:26.574Z,96993.53
2023-05-19T19:55:59.750Z,97001.72
2023-05-19T19:58:26.980Z,96996.94
2023-05-19T20:00:57.819Z,96992.72
2023-05-19T20:03:24.978Z,96995.94
2023-05-19T20:05:52.028Z,96995.75
2023-05-19T20:08:18.921Z,96994.22
2023-05-19T20:10:48.645Z,96996.44
2023-05-19T20:13:15.855Z,96994.88
2023-05-19T20:15:43.176Z,96986.44
2023-05-19T20:18:10.264Z,96991.69
2023-05-19T20:20:37.809Z,96982.91
2023-05-19T20:23:04.785Z,96990.50
2023-05-19T20:25:31.652Z,96983.97
2023-05-19T20:27:58.531Z,96989.69
2023-05-19T20:30:25.328Z,96994.63
2023-05-19T20:32:52.106Z,96987.19
2023-05-19T20:35:19.018Z,96988.03
2023-05-19T20:37:45.829Z,96991.91
2023-05-19T20:40:12.780Z,96984.47
2023-05-19T20:42:39.803Z,96991.00
2023-05-19T20:45:07.625Z,96990.00
2023-05-19T20:47:34.435Z,96990.75
2023-05-19T20:50:01.247Z,96986.94
2023-05-19T20:52:28.121Z,96992.31
2023-05-19T20:54:55.048Z,96993.47
2023-05-19T20:57:21.827Z,96989.34
2023-05-19T20:59:48.602Z,96987.44
2023-05-19T21:02:15.392Z,96991.50
2023-05-19T21:04:42.261Z,96989.50
2023-05-19T21:07:09.114Z,96991.66
2023-05-19T21:09:35.991Z,96985.69
2023-05-19T21:12:02.918Z,96984.72
2023-05-19T21:14:29.873Z,96984.47
2023-05-19T21:16:56.741Z,96991.81
2023-05-19T21:19:23.602Z,96984.78
2023-05-19T21:21:50.445Z,96987.34
2023-05-19T21:24:17.249Z,96980.81
2023-05-19T21:26:44.002Z,96982.56
2023-05-19T21:29:10.852Z,96984.63
2023-05-19T21:31:37.741Z,96989.75
2023-05-19T21:34:04.847Z,96976.81
2023-05-19T21:36:31.640Z,96981.44
2023-05-19T21:38:58.423Z,96969.94
2023-05-19T21:41:25.235Z,96975.63
2023-05-19T21:43:52.076Z,96976.19
2023-05-19T21:46:18.979Z,96983.22
2023-05-19T21:48:45.928Z,96976.69
2023-05-19T21:51:12.770Z,96970.44
2023-05-19T21:53:39.591Z,96968.72
2023-05-19T21:56:06.506Z,96959.78
2023-05-19T21:58:33.328Z,96968.53
2023-05-19T22:01:00.096Z,96953.59
2023-05-19T22:03:27.037Z,96962.84
2023-05-19T22:05:54.776Z,96951.38
2023-05-19T22:08:21.711Z,96954.78
2023-05-19T22:10:48.727Z,96952.88
2023-05-19T22:13:15.514Z,96959.22
2023-05-19T22:15:45.439Z,96958.97
2023-05-19T22:18:12.332Z,96967.72
2023-05-19T22:20:39.188Z,96963.00
2023-05-19T22:23:06.002Z,96968.53
2023-05-19T22:25:32.782Z,96962.19
2023-05-19T22:27:59.555Z,96962.19
2023-05-19T22:30:26.373Z,96961.44
2023-05-19T22:32:53.254Z,96968.63
2023-05-19T22:35:20.164Z,96960.94
2023-05-19T22:37:46.928Z,96960.63
2023-05-19T22:40:13.832Z,96959.53
2023-05-19T22:42:40.604Z,96960.28
2023-05-19T22:45:07.895Z,96962.50
2023-05-19T22:47:34.726Z,96963.34
2023-05-19T22:50:01.591Z,96957.56
2023-05-19T22:52:28.492Z,96960.75
2023-05-19T22:54:55.343Z,96967.63
2023-05-19T22:57:22.162Z,96961.69
2023-05-19T22:59:48.919Z,96957.63
2023-05-19T23:02:15.819Z,96949.97
2023-05-19T23:04:42.684Z,96953.75
2023-05-19T23:07:09.464Z,96945.09
2023-05-19T23:09:36.198Z,96946.75
2023-05-19T23:12:03.038Z,96954.59
2023-05-19T23:14:29.807Z,96945.59
2023-05-19T23:16:56.645Z,96948.91
2023-05-19T23:19:23.570Z,96949.88
2023-05-19T23:21:50.456Z,96954.09
2023-05-19T23:24:17.254Z,96951.88
2023-05-19T23:26:44.104Z,96940.72
2023-05-19T23:29:14.117Z,96938.50
2023-05-19T23:31:41.300Z,96938.50
2023-05-19T23:34:08.219Z,96939.31
2023-05-19T23:36:34.976Z,96946.66
2023-05-19T23:39:01.748Z,96946.09
2023-05-19T23:41:28.488Z,96941.81
2023-05-19T23:43:55.213Z,96945.50
2023-05-19T23:46:22.334Z,96944.34
2023-05-19T23:48:49.211Z,96936.75
2023-05-19T23:51:16.072Z,96937.56
2023-05-19T23:53:42.904Z,96942.19
2023-05-19T23:56:10.337Z,96936.25
2023-05-19T23:58:37.156Z,96938.16
